Time;durP1;ratioP1;P1;durP2;ratioP2;P2;SDS_P1;SDS_P2;PMS_P1;PMS_P2;Temp;Humidity;BMP_temperature;BMP_pressure;BME280_temperature;BME280_humidity;BME280_pressure;Samples;Min_cycle;Max_cycle;Signal;HPM_P1;HPM_P2
2021/01/11 00:00:17;;;;;;;17.48;9.63;;;;;;;0.04;66.97;101212.05;1711488;82;22032;-76
2021/01/11 00:02:45;;;;;;;19.95;10.15;;;;;;;0.05;66.98;101197.79;1704144;80;21228;-75
2021/01/11 00:05:13;;;;;;;16.73;10.08;;;;;;;0.09;66.92;101200.70;1702476;82;21232;-75
2021/01/11 00:07:41;;;;;;;17.98;9.15;;;;;;;0.07;67.00;101190.83;1680553;83;21203;-75
2021/01/11 00:10:11;;;;;;;15.25;8.23;;;;;;;0.04;67.04;101184.42;1704860;82;21192;-76
2021/01/11 00:12:43;;;;;;;15.38;8.85;;;;;;;0.00;67.04;101190.58;1702718;82;21215;-77
2021/01/11 00:15:13;;;;;;;18.87;9.70;;;;;;;0.00;66.98;101193.16;1664665;84;21246;-77
2021/01/11 00:17:44;;;;;;;18.15;11.18;;;;;;;-0.04;66.94;101198.83;1694032;83;21487;-76
2021/01/11 00:20:12;;;;;;;18.00;10.15;;;;;;;-0.07;66.98;101207.11;1694246;83;21173;-75
2021/01/11 00:22:43;;;;;;;19.05;10.90;;;;;;;-0.09;67.04;101207.59;1668888;83;21271;-75
2021/01/11 00:25:12;;;;;;;19.10;10.08;;;;;;;-0.10;67.05;101201.99;1675927;83;21230;-75
2021/01/11 00:27:41;;;;;;;17.55;9.93;;;;;;;-0.10;67.07;101201.58;1693522;83;21322;-75
2021/01/11 00:30:10;;;;;;;19.17;10.13;;;;;;;-0.10;67.05;101200.28;1693963;83;21176;-76
2021/01/11 00:32:38;;;;;;;14.13;9.33;;;;;;;-0.08;67.08;101206.27;1693183;83;21197;-75
2021/01/11 00:35:07;;;;;;;16.52;9.58;;;;;;;-0.06;67.02;101214.83;1702071;82;21188;-75
2021/01/11 00:37:34;;;;;;;15.65;8.90;;;;;;;-0.04;66.90;101211.77;1702333;83;21263;-77
2021/01/11 00:40:06;;;;;;;18.80;9.58;;;;;;;-0.02;66.81;101207.42;1659677;83;21223;-76
2021/01/11 00:42:35;;;;;;;21.02;11.03;;;;;;;-0.04;66.79;101211.77;1673102;83;21217;-75
2021/01/11 00:45:07;;;;;;;15.25;8.48;;;;;;;-0.07;66.67;101207.98;1674820;83;21206;-75
2021/01/11 00:47:40;;;;;;;15.10;8.58;;;;;;;-0.11;66.62;101202.45;1684813;83;21180;-76
2021/01/11 00:50:10;;;;;;;18.25;10.55;;;;;;;-0.12;66.32;101196.85;1656587;84;21219;-77
2021/01/11 00:52:39;;;;;;;18.62;10.65;;;;;;;-0.14;66.38;101200.38;1647977;84;21276;-74
2021/01/11 00:55:08;;;;;;;19.23;10.70;;;;;;;-0.16;66.70;101204.73;1683494;82;21236;-75
2021/01/11 00:57:39;;;;;;;16.80;8.98;;;;;;;-0.15;66.42;101215.47;1703890;82;21208;-76
2021/01/11 01:00:09;;;;;;;21.75;11.95;;;;;;;-0.15;66.17;101220.23;1680921;84;21153;-76
2021/01/11 01:02:38;;;;;;;18.25;10.48;;;;;;;-0.12;65.94;101224.02;1687725;83;21188;-76
2021/01/11 01:05:10;;;;;;;19.02;10.55;;;;;;;-0.11;65.81;101213.25;1682663;83;21133;-76
2021/01/11 01:07:43;;;;;;;18.02;9.75;;;;;;;-0.14;66.09;101222.36;1677066;83;21173;-76
2021/01/11 01:10:11;;;;;;;16.07;9.73;;;;;;;-0.22;66.23;101209.59;1724686;81;21165;-76
2021/01/11 01:12:38;;;;;;;20.75;12.40;;;;;;;-0.22;66.49;101218.22;1719642;81;21204;-75
2021/01/11 01:15:07;;;;;;;22.70;11.60;;;;;;;-0.19;66.71;101215.54;1658244;84;22101;-75
2021/01/11 01:17:37;;;;;;;24.18;12.95;;;;;;;-0.19;66.81;101216.83;1720276;81;21203;-75
2021/01/11 01:20:08;;;;;;;18.85;11.48;;;;;;;-0.20;66.83;101216.44;1722803;81;21173;-75
2021/01/11 01:22:36;;;;;;;19.70;11.50;;;;;;;-0.21;66.89;101225.08;1666343;84;21229;-75
2021/01/11 01:25:04;;;;;;;20.50;11.25;;;;;;;-0.23;67.07;101217.80;1721245;82;21169;-76
2021/01/11 01:27:31;;;;;;;16.97;11.38;;;;;;;-0.19;66.95;101215.99;1721636;81;22503;-75
2021/01/11 01:29:59;;;;;;;18.73;11.22;;;;;;;-0.19;66.52;101223.30;1674744;83;21205;-75
2021/01/11 01:32:26;;;;;;;19.30;10.80;;;;;;;-0.24;66.05;101219.96;1719843;82;21257;-75
2021/01/11 01:34:54;;;;;;;19.82;10.72;;;;;;;-0.31;65.87;101226.16;1673789;84;21200;-74
2021/01/11 01:37:21;;;;;;;18.27;11.63;;;;;;;-0.35;65.66;101222.38;1715873;81;21219;-76
2021/01/11 01:39:48;;;;;;;16.75;10.15;;;;;;;-0.34;65.68;101221.05;1669776;85;21204;-75
2021/01/11 01:42:15;;;;;;;21.25;11.18;;;;;;;-0.36;65.75;101221.53;1714846;82;21189;-76
2021/01/11 01:44:43;;;;;;;18.80;10.45;;;;;;;-0.39;65.73;101215.12;1714796;81;21209;-75
2021/01/11 01:47:10;;;;;;;17.05;10.78;;;;;;;-0.43;65.54;101214.34;1702269;82;21240;-75
2021/01/11 01:49:38;;;;;;;20.88;11.43;;;;;;;-0.46;65.42;101223.91;1702733;82;21161;-75
2021/01/11 01:52:05;;;;;;;20.62;10.40;;;;;;;-0.48;65.60;101227.81;1671980;83;21230;-76
2021/01/11 01:54:32;;;;;;;18.35;10.75;;;;;;;-0.51;65.99;101237.37;1686957;82;21209;-75
2021/01/11 01:56:59;;;;;;;21.70;10.53;;;;;;;-0.53;66.28;101240.44;1671013;83;21230;-75
2021/01/11 01:59:27;;;;;;;19.50;9.93;;;;;;;-0.54;66.39;101247.77;1716358;81;21164;-76
2021/01/11 02:01:55;;;;;;;21.20;11.75;;;;;;;-0.59;66.53;101245.27;1720236;81;21193;-76
2021/01/11 02:04:22;;;;;;;15.65;9.80;;;;;;;-0.63;66.65;101253.53;1685822;83;21397;-76
2021/01/11 02:06:56;;;;;;;15.25;10.40;;;;;;;-0.66;66.85;101256.16;1684564;83;21184;-75
2021/01/11 02:09:41;;;;;;;19.52;9.83;;;;;;;-0.66;66.98;101256.16;1681370;83;21216;-76
2021/01/11 02:12:14;;;;;;;17.55;10.68;;;;;;;-0.66;67.16;101250.16;1652895;83;21216;-76
2021/01/11 02:25:49;;;;;;;16.32;10.15;;;;;;;-0.98;67.27;101241.28;1710716;81;24665;-60
2021/01/11 02:28:58;;;;;;;14.37;9.73;;;;;;;-1.06;67.53;101246.60;1666583;83;21206;-60
2021/01/11 02:31:26;;;;;;;25.45;12.30;;;;;;;-1.06;67.60;101241.85;1679039;83;21379;-60
2021/01/11 02:33:56;;;;;;;21.10;11.63;;;;;;;-1.05;67.61;101236.66;1690126;84;21263;-60
2021/01/11 02:36:24;;;;;;;24.92;12.50;;;;;;;-1.04;67.63;101221.59;1689332;83;21363;-60
2021/01/11 02:38:51;;;;;;;20.52;10.90;;;;;;;-0.99;67.41;101217.19;1704528;82;21688;-60
2021/01/11 02:41:19;;;;;;;17.73;10.28;;;;;;;-0.94;67.44;101206.32;1732150;80;21143;-60
2021/01/11 02:43:46;;;;;;;27.50;12.58;;;;;;;-0.91;67.50;101201.97;1734413;80;21188;-60
2021/01/11 02:46:14;;;;;;;22.42;13.00;;;;;;;-0.90;67.52;101197.22;1738005;81;21215;-60
2021/01/11 02:48:56;;;;;;;18.67;10.53;;;;;;;-0.88;67.33;101194.16;1731154;80;21212;-60
2021/01/11 02:51:35;;;;;;;24.25;12.15;;;;;;;-0.87;67.36;101194.59;1709690;82;21187;-60
2021/01/11 02:54:25;;;;;;;21.95;10.53;;;;;;;-0.85;67.27;101196.69;1740802;80;21214;-60
2021/01/11 02:56:58;;;;;;;21.40;11.65;;;;;;;-0.87;67.29;101193.30;1743321;80;21398;-60
2021/01/11 02:59:38;;;;;;;21.45;11.80;;;;;;;-0.89;67.20;101195.03;1736115;80;21167;-60
2021/01/11 03:02:12;;;;;;;18.55;11.68;;;;;;;-0.89;67.28;101195.03;1694247;82;21283;-60
2021/01/11 03:04:42;;;;;;;21.68;10.25;;;;;;;-0.91;67.08;101195.52;1727822;81;21189;-60
2021/01/11 03:07:10;;;;;;;22.30;12.68;;;;;;;-0.92;66.87;101194.67;1715434;81;21191;-61
2021/01/11 03:09:42;;;;;;;21.05;11.57;;;;;;;-0.94;66.68;101197.73;1706766;81;21230;-60
2021/01/11 03:12:10;;;;;;;22.70;10.60;;;;;;;-0.95;66.75;101201.18;1735906;81;21186;-60
2021/01/11 03:14:38;;;;;;;18.50;11.48;;;;;;;-0.96;66.81;101206.80;1739534;80;21136;-60
2021/01/11 03:17:06;;;;;;;18.98;9.45;;;;;;;-0.92;66.86;101205.42;1728875;82;21198;-60
2021/01/11 03:20:18;;;;;;;17.57;11.33;;;;;;;-0.84;66.85;101203.55;1792936;78;22688;-60
2021/01/11 03:22:46;;;;;;;19.82;10.20;;;;;;;-0.82;66.78;101215.56;1768023;79;21172;-60
2021/01/11 03:25:13;;;;;;;25.57;12.07;;;;;;;-0.79;66.75;101221.09;1737902;80;21233;-60
2021/01/11 03:27:41;;;;;;;22.30;12.68;;;;;;;-0.80;66.78;101218.12;1765654;79;21179;-60
2021/01/11 03:30:10;;;;;;;20.62;11.68;;;;;;;-0.77;66.68;101223.23;1712860;82;21184;-60
2021/01/11 03:32:40;;;;;;;16.32;10.25;;;;;;;-0.78;66.68;101220.23;1733002;81;21176;-60
2021/01/11 03:35:08;;;;;;;21.12;10.85;;;;;;;-0.76;66.63;101225.80;1707891;82;21178;-60
2021/01/11 03:37:36;;;;;;;17.32;10.93;;;;;;;-0.72;66.47;101230.46;1706356;82;21214;-60
2021/01/11 03:40:06;;;;;;;17.85;11.25;;;;;;;-0.68;66.50;101233.83;1706845;83;21674;-60
2021/01/11 03:42:41;;;;;;;17.87;10.53;;;;;;;-0.62;66.48;101236.30;1687316;82;21145;-60
2021/01/11 03:45:11;;;;;;;16.75;10.78;;;;;;;-0.60;66.33;101233.24;1708560;82;21200;-60
2021/01/11 03:47:38;;;;;;;19.57;10.80;;;;;;;-0.58;66.22;101238.77;1741675;80;21190;-60
2021/01/11 03:50:09;;;;;;;22.22;11.18;;;;;;;-0.54;66.17;101243.44;1740222;81;21510;-60
2021/01/11 03:52:38;;;;;;;19.48;10.82;;;;;;;-0.53;66.12;101232.23;1686562;81;21195;-60
2021/01/11 03:55:08;;;;;;;21.73;11.93;;;;;;;-0.47;66.21;101237.70;1733173;81;21583;-60
2021/01/11 03:57:36;;;;;;;18.30;10.72;;;;;;;-0.41;66.08;101238.42;1701723;81;21199;-61
2021/01/11 04:00:07;;;;;;;22.65;12.90;;;;;;;-0.38;65.89;101238.82;1716375;81;21196;-61
2021/01/11 04:02:34;;;;;;;18.40;10.63;;;;;;;-0.41;65.92;101239.72;1732612;81;22105;-61
2021/01/11 04:05:03;;;;;;;26.00;12.88;;;;;;;-0.44;65.92;101237.64;1670623;83;21243;-61
2021/01/11 04:07:32;;;;;;;19.87;10.08;;;;;;;-0.42;65.98;101231.99;1679887;83;21200;-61
2021/01/11 04:10:05;;;;;;;19.55;11.48;;;;;;;-0.40;66.17;101235.42;1715511;81;21217;-61
2021/01/11 04:12:34;;;;;;;18.50;10.65;;;;;;;-0.36;66.15;101236.20;1716786;82;21247;-60
2021/01/11 04:15:04;;;;;;;23.07;12.53;;;;;;;-0.35;66.16;101245.23;1717775;82;21752;-61
2021/01/11 04:17:32;;;;;;;21.07;12.03;;;;;;;-0.33;66.19;101256.38;1718977;82;21223;-60
2021/01/11 04:20:00;;;;;;;21.15;11.40;;;;;;;-0.31;66.28;101254.61;1693856;82;21181;-60
2021/01/11 04:22:27;;;;;;;18.75;10.80;;;;;;;-0.27;66.36;101245.92;1672698;83;21201;-61
2021/01/11 04:24:55;;;;;;;23.30;12.37;;;;;;;-0.22;66.38;101250.55;1703242;82;21250;-61
2021/01/11 04:27:23;;;;;;;21.70;12.15;;;;;;;-0.14;66.40;101245.20;1689037;82;21272;-61
2021/01/11 04:29:50;;;;;;;23.32;12.15;;;;;;;-0.10;66.24;101247.27;1730245;82;21185;-61
2021/01/11 04:32:18;;;;;;;21.23;11.97;;;;;;;-0.09;66.20;101252.41;1707110;82;21252;-61
2021/01/11 04:34:45;;;;;;;22.15;11.68;;;;;;;-0.11;66.13;101251.60;1728166;82;21224;-60
2021/01/11 04:37:13;;;;;;;20.43;11.18;;;;;;;-0.11;66.06;101250.30;1731510;80;21168;-61
2021/01/11 04:39:40;;;;;;;20.32;11.85;;;;;;;-0.14;66.21;101254.25;1688769;83;21248;-61
2021/01/11 04:42:12;;;;;;;21.57;12.68;;;;;;;-0.10;66.22;101249.44;1733578;82;21379;-61
2021/01/11 04:44:40;;;;;;;21.07;12.47;;;;;;;-0.05;66.19;101244.13;1733932;82;21256;-61
2021/01/11 04:47:08;;;;;;;22.35;12.40;;;;;;;-0.02;66.01;101248.83;1669036;84;21522;-60
2021/01/11 04:49:38;;;;;;;27.13;12.90;;;;;;;-0.03;65.98;101244.52;1620927;85;21197;-61
2021/01/11 04:52:08;;;;;;;21.25;13.62;;;;;;;-0.05;66.09;101242.84;1731949;82;21383;-60
2021/01/11 04:54:35;;;;;;;20.70;12.65;;;;;;;-0.06;66.26;101246.34;1688500;82;21643;-59
2021/01/11 04:57:03;;;;;;;22.02;13.15;;;;;;;-0.02;66.24;101249.25;1732192;82;21511;-61
2021/01/11 04:59:32;;;;;;;27.22;14.30;;;;;;;0.03;66.22;101249.16;1730662;82;21207;-60
2021/01/11 05:02:00;;;;;;;23.80;13.98;;;;;;;0.08;66.28;101253.33;1730999;80;21572;-59
2021/01/11 05:04:28;;;;;;;26.50;12.33;;;;;;;0.16;66.14;101251.88;1639994;82;21283;-59
2021/01/11 05:07:02;;;;;;;24.90;13.35;;;;;;;0.17;66.01;101254.88;1729490;82;21203;-59
2021/01/11 05:09:30;;;;;;;22.58;14.15;;;;;;;0.19;65.99;101260.87;1734473;80;21204;-58
2021/01/11 05:11:58;;;;;;;23.15;13.28;;;;;;;0.24;65.94;101251.26;1699140;81;21203;-58
2021/01/11 05:14:27;;;;;;;23.87;14.50;;;;;;;0.27;65.98;101248.61;1732076;82;21562;-59
2021/01/11 05:17:02;;;;;;;22.98;12.85;;;;;;;0.32;65.94;101252.36;1733630;82;21188;-59
2021/01/11 05:19:29;;;;;;;25.55;13.50;;;;;;;0.33;65.85;101253.62;1740270;80;21211;-59
2021/01/11 05:21:57;;;;;;;25.37;14.55;;;;;;;0.35;65.66;101248.41;1752612;80;21161;-58
2021/01/11 05:24:34;;;;;;;24.75;14.40;;;;;;;0.31;65.58;101251.52;1750287;80;21211;-59
2021/01/11 05:27:09;;;;;;;23.52;14.33;;;;;;;0.29;65.70;101249.86;1739026;80;21498;-59
2021/01/11 05:32:16;;;;;;;25.02;14.05;;;;;;;0.29;65.86;101252.00;1864826;74;25191;-60
2021/01/11 05:34:53;;;;;;;20.82;12.90;;;;;;;0.32;65.84;101252.36;1775300;78;21226;-59
2021/01/11 05:37:37;;;;;;;;;;;;;;;0.33;65.88;101257.95;1808513;77;22179;-58
2021/01/11 05:40:15;;;;;;;22.90;13.08;;;;;;;0.36;65.80;101263.06;1805185;78;20273;-57
2021/01/11 05:42:51;;;;;;;30.25;14.47;;;;;;;0.33;65.92;101260.09;1806964;78;22261;-54
2021/01/11 05:45:28;;;;;;;23.30;13.78;;;;;;;0.36;65.96;101259.18;1767084;79;21206;-60
2021/01/11 05:48:03;;;;;;;21.90;12.10;;;;;;;0.41;65.76;101259.92;1807040;77;21180;-61
2021/01/11 05:50:44;;;;;;;29.57;12.68;;;;;;;0.43;65.76;101265.06;1809680;78;21349;-57
2021/01/11 05:53:23;;;;;;;18.23;12.37;;;;;;;0.42;65.72;101264.22;1791112;78;21175;-60
2021/01/11 05:55:53;;;;;;;22.25;13.22;;;;;;;0.44;65.72;101259.85;1766439;79;21255;-61
2021/01/11 05:58:22;;;;;;;22.30;14.38;;;;;;;0.44;65.76;101258.56;1766225;78;21852;-61
2021/01/11 06:00:50;;;;;;;22.48;12.40;;;;;;;0.44;65.87;101265.45;1775694;78;21178;-61
2021/01/11 06:03:18;;;;;;;22.42;13.28;;;;;;;0.43;66.04;101268.50;1781872;78;21160;-61
2021/01/11 06:05:46;;;;;;;25.35;14.43;;;;;;;0.45;66.12;101266.72;1806807;77;22241;-60
2021/01/11 06:08:14;;;;;;;22.40;11.45;;;;;;;0.46;66.07;101265.84;1779215;78;21156;-61
2021/01/11 06:10:44;;;;;;;27.32;13.95;;;;;;;0.48;65.98;101269.69;1806529;77;22403;-59
2021/01/11 06:13:13;;;;;;;20.82;11.43;;;;;;;0.50;65.95;101276.52;1805104;77;21134;-60
2021/01/11 06:15:43;;;;;;;22.77;13.78;;;;;;;0.53;65.94;101275.61;1804842;77;21309;-60
2021/01/11 06:18:14;;;;;;;23.02;14.45;;;;;;;0.56;65.92;101279.42;1772976;78;21591;-61
2021/01/11 06:20:47;;;;;;;22.98;12.00;;;;;;;0.60;65.99;101285.38;1778234;78;21243;-60
2021/01/11 06:23:26;;;;;;;20.52;12.33;;;;;;;0.60;66.00;101286.67;1804400;77;21167;-61
2021/01/11 06:25:54;;;;;;;22.85;11.93;;;;;;;0.64;65.90;101290.87;1774577;77;21480;-61
2021/01/11 06:28:31;;;;;;;19.50;10.85;;;;;;;0.65;65.72;101288.70;1807741;77;21381;-60
2021/01/11 06:31:14;;;;;;;23.75;12.78;;;;;;;0.64;65.67;101286.57;1758550;78;22345;-60
2021/01/11 06:33:43;;;;;;;18.02;11.20;;;;;;;0.68;65.57;101289.94;1802590;77;21187;-60
2021/01/11 06:36:23;;;;;;;19.50;11.15;;;;;;;0.67;65.46;101286.50;1774170;78;21585;-60
2021/01/11 06:38:53;;;;;;;21.93;12.50;;;;;;;0.68;65.52;101287.34;1759284;78;21226;-60
2021/01/11 06:41:23;;;;;;;21.45;12.53;;;;;;;0.67;65.50;101284.33;1781810;78;21260;-60
2021/01/11 06:43:52;;;;;;;24.10;12.78;;;;;;;0.66;65.54;101277.02;1773070;79;21390;-59
2021/01/11 06:46:42;;;;;;;22.65;13.88;;;;;;;0.71;65.54;101276.91;1772410;78;21201;-61
2021/01/11 06:49:07;;;;;;;23.25;13.65;;;;;;;0.74;65.65;101275.09;1744045;80;21223;-61
2021/01/11 06:51:45;;;;;;;22.58;12.90;;;;;;;0.82;65.69;101274.88;1689957;80;21709;-61
2021/01/11 06:54:14;;;;;;;29.72;12.95;;;;;;;0.88;65.47;101274.73;1697532;80;21232;-63
2021/01/11 06:56:43;;;;;;;26.95;15.23;;;;;;;0.90;65.35;101279.42;1726357;80;21194;-59
2021/01/11 06:59:12;;;;;;;20.70;13.15;;;;;;;0.89;65.29;101275.58;1753442;80;21146;-59
2021/01/11 07:01:40;;;;;;;22.73;12.75;;;;;;;0.86;65.26;101277.81;1752010;80;21110;-60
2021/01/11 07:04:10;;;;;;;24.02;14.10;;;;;;;0.88;65.26;101281.21;1753184;79;21174;-58
2021/01/11 07:09:15;;;;;;;23.83;13.55;;;;;;;1.00;65.20;101275.31;1865918;74;22731;-61
2021/01/11 07:11:48;;;;;;;26.25;14.18;;;;;;;0.91;65.31;101276.41;1806665;77;21631;-62
2021/01/11 07:14:22;;;;;;;24.65;13.38;;;;;;;0.93;65.36;101275.47;1841499;75;21185;-61
2021/01/11 07:16:57;;;;;;;25.37;13.80;;;;;;;0.93;65.32;101271.58;1813684;77;21255;-63
2021/01/11 07:19:43;;;;;;;21.77;13.05;;;;;;;0.97;65.22;101271.05;1837825;77;21123;-62
2021/01/11 07:22:13;;;;;;;20.45;12.37;;;;;;;0.97;65.19;101268.91;1841182;76;21163;-63
2021/01/11 07:24:45;;;;;;;19.35;12.70;;;;;;;0.97;65.21;101266.32;1772196;79;21120;-60
2021/01/11 07:27:18;;;;;;;21.15;13.03;;;;;;;1.00;65.31;101273.56;1764955;78;22717;-64
2021/01/11 07:29:49;;;;;;;23.67;13.98;;;;;;;1.04;65.41;101272.61;1748193;78;21143;-63
2021/01/11 07:32:20;;;;;;;23.85;13.43;;;;;;;1.10;65.38;101269.84;1772160;78;21002;-61
2021/01/11 07:35:02;;;;;;;25.30;13.68;;;;;;;1.16;65.38;101280.52;1773192;78;21107;-61
2021/01/11 07:37:30;;;;;;;22.17;12.05;;;;;;;1.16;65.34;101277.92;1768935;78;21542;-61
2021/01/11 07:40:10;;;;;;;21.55;12.40;;;;;;;1.19;65.31;101276.52;1800534;77;21373;-62
2021/01/11 07:42:38;;;;;;;16.90;11.45;;;;;;;1.25;65.25;101276.36;1771284;79;21162;-61
2021/01/11 07:45:11;;;;;;;23.20;12.33;;;;;;;1.30;65.25;101274.49;1803624;77;21438;-61
2021/01/11 07:47:41;;;;;;;21.05;12.25;;;;;;;1.36;65.21;101275.22;1773354;78;21244;-60
2021/01/11 07:50:12;;;;;;;18.60;11.25;;;;;;;1.40;65.23;101281.58;1771059;78;21240;-59
2021/01/11 07:52:39;;;;;;;18.90;11.48;;;;;;;1.42;64.77;101286.27;1775518;78;21928;-61
2021/01/11 07:55:11;;;;;;;19.07;11.25;;;;;;;1.42;64.61;101288.02;1802723;77;21278;-61
2021/01/11 07:57:40;;;;;;;21.73;12.73;;;;;;;1.41;64.57;101291.50;1768471;80;21192;-64
2021/01/11 08:00:10;;;;;;;21.82;12.90;;;;;;;1.39;64.41;101296.73;1741706;80;21219;-62
2021/01/11 08:02:47;;;;;;;21.30;11.18;;;;;;;1.35;64.37;101289.09;1803928;77;21169;-62
2021/01/11 08:05:40;;;;;;;15.45;10.03;;;;;;;1.31;64.50;101294.78;1760433;78;21463;-60
2021/01/11 08:08:10;;;;;;;20.77;13.15;;;;;;;1.26;64.85;101289.74;1772648;78;21171;-61
2021/01/11 08:10:41;;;;;;;31.07;14.15;;;;;;;1.30;64.93;101296.53;1734750;80;21156;-60
2021/01/11 08:13:11;;;;;;;25.43;15.43;;;;;;;1.34;64.93;101301.64;1807696;78;21195;-59
2021/01/11 08:15:43;;;;;;;23.27;15.05;;;;;;;1.33;64.99;101296.91;1808835;77;21190;-60
2021/01/11 08:18:13;;;;;;;22.70;14.78;;;;;;;1.33;65.08;101298.63;1805958;78;21372;-56
2021/01/11 08:20:42;;;;;;;25.17;14.85;;;;;;;1.34;65.13;101297.75;1782796;78;21552;-59
2021/01/11 08:23:11;;;;;;;20.50;13.80;;;;;;;1.36;65.13;101302.02;1746273;80;21147;-59
2021/01/11 08:25:40;;;;;;;27.25;15.38;;;;;;;1.37;65.31;101303.70;1715520;80;21160;-59
2021/01/11 08:28:12;;;;;;;25.37;16.52;;;;;;;1.39;65.36;101310.15;1713984;81;21137;-60
2021/01/11 08:30:42;;;;;;;25.17;15.65;;;;;;;1.34;65.49;101308.97;1752956;79;21212;-60
2021/01/11 08:33:12;;;;;;;24.50;14.07;;;;;;;1.38;65.68;101311.90;1727187;81;21167;-60
2021/01/11 08:35:42;;;;;;;32.60;14.70;;;;;;;1.41;65.64;101314.84;1726226;81;21222;-59
2021/01/11 08:38:12;;;;;;;27.70;15.63;;;;;;;1.46;65.51;101316.86;1753929;80;21227;-60
2021/01/11 08:40:49;;;;;;;24.10;15.98;;;;;;;1.44;65.42;101308.28;1755127;79;21519;-60
2021/01/11 08:43:23;;;;;;;26.55;16.87;;;;;;;1.46;65.38;101310.38;1753041;79;21296;-61
2021/01/11 08:45:56;;;;;;;40.50;22.50;;;;;;;1.48;65.45;101314.64;1757045;79;21228;-60
2021/01/11 08:48:27;;;;;;;34.00;21.27;;;;;;;1.52;65.40;101313.27;1767036;80;21192;-61
2021/01/11 08:50:58;;;;;;;37.10;22.05;;;;;;;1.48;65.44;101311.21;1749274;81;21195;-59
2021/01/11 08:53:37;;;;;;;37.63;23.50;;;;;;;1.47;65.57;101309.50;1725350;81;21178;-59
2021/01/11 08:58:57;;;;;;;36.73;22.80;;;;;;;1.54;65.78;101298.51;1866824;75;22823;-60
2021/01/11 09:01:26;;;;;;;35.60;23.25;;;;;;;1.56;65.81;101313.12;1816225;77;21456;-60
2021/01/11 09:03:59;;;;;;;36.35;21.62;;;;;;;1.59;65.76;101311.74;1835491;77;21409;-60
2021/01/11 09:06:41;;;;;;;38.00;21.23;;;;;;;1.61;65.78;101309.11;1836396;77;21068;-61
2021/01/11 09:09:18;;;;;;;36.70;22.45;;;;;;;1.65;65.59;101310.28;1836942;77;21456;-60
2021/01/11 09:11:48;;;;;;;35.90;22.22;;;;;;;1.65;65.62;101303.80;1837137;76;21167;-59
2021/01/11 09:14:19;;;;;;;35.05;21.40;;;;;;;1.65;65.44;101302.50;1803843;77;21222;-60
2021/01/11 09:16:51;;;;;;;31.93;18.70;;;;;;;1.70;65.46;101300.20;1838711;77;21153;-59
2021/01/11 09:19:21;;;;;;;26.68;16.52;;;;;;;1.71;65.13;101301.47;1838695;77;21179;-60
2021/01/11 09:24:53;;;;;;;21.12;11.95;;;;;;;1.68;65.04;101293.77;1869175;74;22680;-60
2021/01/11 09:27:23;;;;;;;20.15;13.10;;;;;;;1.65;64.95;101296.02;1840812;75;21119;-60
2021/01/11 09:29:52;;;;;;;19.77;12.35;;;;;;;1.63;64.87;101296.52;1839133;75;21272;-60
2021/01/11 09:32:21;;;;;;;17.10;10.20;;;;;;;1.65;64.91;101293.42;1837317;75;21206;-59
2021/01/11 09:34:51;;;;;;;16.27;9.55;;;;;;;1.68;64.94;101297.66;1834879;75;21159;-60
2021/01/11 09:37:21;;;;;;;23.77;10.25;;;;;;;1.73;64.89;101292.34;1806461;77;21198;-59
2021/01/11 09:39:51;;;;;;;18.17;9.45;;;;;;;1.78;64.63;101291.77;1807579;75;21147;-59
2021/01/11 09:42:18;;;;;;;16.93;9.95;;;;;;;1.82;64.48;101293.39;1839413;75;21266;-60
2021/01/11 09:44:46;;;;;;;16.73;9.73;;;;;;;1.81;64.55;101289.92;1812160;77;21184;-60
2021/01/11 09:47:14;;;;;;;15.48;9.20;;;;;;;1.84;64.34;101291.59;1837403;75;21167;-57
2021/01/11 09:49:43;;;;;;;16.90;8.70;;;;;;;1.86;64.22;101288.50;1838053;75;21599;-59
2021/01/11 09:54:47;;;;;;;16.07;8.18;;;;;;;1.86;63.74;101282.02;1870408;74;21983;-59
2021/01/11 09:57:15;;;;;;;16.35;9.05;;;;;;;1.89;63.67;101285.82;1836236;77;21615;-60
2021/01/11 09:59:46;;;;;;;14.00;8.53;;;;;;;1.86;63.73;101286.75;1835852;77;21365;-59
2021/01/11 10:02:16;;;;;;;17.17;8.73;;;;;;;1.88;63.69;101282.81;1805494;77;21776;-59
2021/01/11 10:04:44;;;;;;;21.73;10.10;;;;;;;1.84;63.64;101279.45;1810175;78;21179;-58
2021/01/11 10:07:12;;;;;;;20.80;12.25;;;;;;;1.85;63.77;101275.14;1780046;78;21533;-60
2021/01/11 10:09:42;;;;;;;26.02;10.98;;;;;;;1.86;64.05;101272.93;1780608;78;21227;-59
2021/01/11 10:12:09;;;;;;;17.20;9.83;;;;;;;1.91;63.81;101276.23;1771877;79;21601;-59
2021/01/11 10:14:38;;;;;;;18.57;9.95;;;;;;;1.89;63.78;101278.03;1782377;78;21599;-59
2021/01/11 10:17:05;;;;;;;16.45;9.70;;;;;;;1.89;63.90;101274.60;1760097;79;21214;-60
2021/01/11 10:19:34;;;;;;;17.17;9.38;;;;;;;1.87;63.99;101272.05;1780456;78;21185;-59
2021/01/11 10:22:02;;;;;;;16.00;7.95;;;;;;;1.92;64.00;101271.46;1780374;78;21238;-60
2021/01/11 10:24:31;;;;;;;15.45;8.85;;;;;;;1.93;63.91;101274.44;1776106;78;22822;-60
2021/01/11 10:27:00;;;;;;;14.05;9.10;;;;;;;1.97;63.85;101271.33;1809531;77;21495;-60
2021/01/11 10:29:28;;;;;;;13.03;7.10;;;;;;;1.98;63.64;101269.12;1808520;78;21143;-59
2021/01/11 10:31:56;;;;;;;16.50;8.45;;;;;;;2.00;63.44;101264.72;1805154;78;21194;-60
2021/01/11 10:34:24;;;;;;;17.40;9.00;;;;;;;2.00;63.18;101258.23;1748551;79;21235;-58
2021/01/11 10:36:55;;;;;;;17.00;8.13;;;;;;;2.01;63.11;101257.34;1807784;77;23428;-58
2021/01/11 10:39:25;;;;;;;17.27;8.18;;;;;;;1.98;63.17;101253.09;1775255;79;21205;-59
2021/01/11 10:41:54;;;;;;;16.25;9.20;;;;;;;1.99;63.17;101255.25;1772626;79;21649;-60
2021/01/11 10:44:23;;;;;;;18.42;8.50;;;;;;;1.95;63.03;101254.50;1777749;78;21171;-60
2021/01/11 10:46:52;;;;;;;17.15;9.83;;;;;;;1.96;62.98;101250.99;1807661;77;21417;-59
2021/01/11 10:49:24;;;;;;;16.75;8.93;;;;;;;1.97;62.96;101250.11;1776462;79;21434;-57
2021/01/11 10:51:56;;;;;;;17.32;9.23;;;;;;;2.03;62.99;101252.95;1748273;80;21242;-59
2021/01/11 10:54:25;;;;;;;13.32;7.22;;;;;;;2.04;62.75;101261.99;1754449;78;21231;-59
2021/01/11 10:56:52;;;;;;;19.52;9.03;;;;;;;2.04;62.66;101256.80;1807994;77;21182;-59
2021/01/11 10:59:20;;;;;;;22.17;8.83;;;;;;;2.05;62.77;101256.34;1807517;77;21610;-59
2021/01/11 11:01:52;;;;;;;18.62;9.75;;;;;;;2.09;62.74;101254.08;1776190;78;21238;-59
2021/01/11 11:04:23;;;;;;;22.95;9.15;;;;;;;2.10;62.78;101259.68;1798246;78;21994;-58
2021/01/11 11:06:50;;;;;;;15.55;9.25;;;;;;;2.13;62.75;101256.12;1778385;78;21762;-60
2021/01/11 11:09:19;;;;;;;17.02;9.33;;;;;;;2.10;62.69;101247.13;1777054;78;21236;-58
2021/01/11 11:11:53;;;;;;;21.90;10.78;;;;;;;2.11;62.68;101242.34;1779406;79;21179;-59
2021/01/11 11:14:20;;;;;;;16.55;8.63;;;;;;;2.11;62.81;101239.75;1769939;79;21476;-59
2021/01/11 11:16:48;;;;;;;15.28;8.40;;;;;;;2.15;62.78;101240.05;1780777;78;21179;-60
2021/01/11 11:19:15;;;;;;;14.13;7.62;;;;;;;2.16;62.60;101240.45;1782802;78;21140;-60
2021/01/11 11:21:44;;;;;;;15.72;8.25;;;;;;;2.15;62.34;101235.72;1779609;78;21218;-66
2021/01/11 11:24:14;;;;;;;13.25;7.65;;;;;;;2.14;62.47;101236.60;1778531;78;21410;-65
2021/01/11 11:26:41;;;;;;;16.20;8.58;;;;;;;2.15;62.44;101238.74;1793013;78;21576;-65
2021/01/11 11:29:09;;;;;;;13.10;7.50;;;;;;;2.11;62.40;101237.16;1776634;78;21226;-64
2021/01/11 11:31:40;;;;;;;14.40;8.05;;;;;;;2.10;62.55;101235.44;1750371;79;21137;-65
2021/01/11 11:34:08;;;;;;;15.40;9.03;;;;;;;2.09;62.63;101231.16;1808547;78;21203;-66
2021/01/11 11:36:37;;;;;;;15.35;8.65;;;;;;;2.09;62.85;101227.27;1784843;78;21185;-65
2021/01/11 11:39:04;;;;;;;15.60;7.85;;;;;;;2.09;62.65;101231.16;1783305;78;21263;-65
2021/01/11 11:41:32;;;;;;;17.12;8.33;;;;;;;2.12;62.62;101225.85;1779431;78;21744;-60
2021/01/11 11:44:00;;;;;;;16.82;8.68;;;;;;;2.11;62.39;101230.66;1781911;78;21275;-59
2021/01/11 11:46:30;;;;;;;21.55;8.90;;;;;;;2.07;62.38;101234.23;1807319;78;21211;-61
2021/01/11 11:48:59;;;;;;;14.25;8.18;;;;;;;2.02;62.53;101234.40;1777025;78;21195;-61
2021/01/11 11:51:29;;;;;;;14.78;8.50;;;;;;;2.02;62.70;101231.34;1778309;79;21254;-61
2021/01/11 11:53:58;;;;;;;17.70;9.53;;;;;;;2.00;62.82;101237.04;1779783;79;21234;-60
2021/01/11 11:56:26;;;;;;;16.23;9.15;;;;;;;2.03;62.77;101238.67;1780822;79;21256;-60